Time;durP1;ratioP1;P1;durP2;ratioP2;P2;SDS_P1;SDS_P2;PMS_P1;PMS_P2;Temp;Humidity;BMP_temperature;BMP_pressure;BME280_temperature;BME280_humidity;BME280_pressure;Samples;Min_cycle;Max_cycle;Signal;HPM_P1;HPM_P2
2022/12/07 00:01:40;;;;;;;9.10;5.90;;;;;;;6.24;86.15;101875.09;5060756;28;20059;-48
2022/12/07 00:04:08;;;;;;;8.05;5.95;;;;;;;6.25;85.77;101876.84;5065864;28;20028;-48
2022/12/07 00:06:39;;;;;;;8.05;5.80;;;;;;;6.23;85.66;101878.44;5067132;28;20029;-44
2022/12/07 00:09:06;;;;;;;9.38;5.95;;;;;;;6.17;85.42;101873.84;5065985;28;20024;-47
2022/12/07 00:11:31;;;;;;;9.70;5.75;;;;;;;6.14;85.45;101872.00;5065075;28;20024;-48
2022/12/07 00:14:00;;;;;;;12.10;5.95;;;;;;;6.12;85.23;101873.53;5064898;28;20388;-47
2022/12/07 00:16:28;;;;;;;8.77;5.90;;;;;;;6.08;84.87;101871.63;5061577;28;20054;-46
2022/12/07 00:18:54;;;;;;;9.82;5.82;;;;;;;6.10;84.70;101869.16;5056051;28;20035;-45
2022/12/07 00:21:22;;;;;;;8.77;5.57;;;;;;;6.04;85.35;101864.53;5062587;28;20029;-45
2022/12/07 00:23:49;;;;;;;9.82;5.90;;;;;;;6.04;86.03;101858.56;5062127;28;20543;-44
2022/12/07 00:26:20;;;;;;;9.10;5.95;;;;;;;6.05;85.67;101855.22;5059109;28;20097;-45
2022/12/07 00:28:52;;;;;;;11.35;6.18;;;;;;;6.07;86.10;101857.09;5061862;28;20032;-45
2022/12/07 00:31:19;;;;;;;10.18;6.25;;;;;;;6.05;85.89;101856.09;5058964;28;20113;-48
2022/12/07 00:33:45;;;;;;;10.10;5.85;;;;;;;6.05;85.67;101855.22;5066322;28;20021;-47
2022/12/07 00:36:14;;;;;;;10.65;6.30;;;;;;;6.01;86.11;101850.72;5064725;28;20063;-46
2022/12/07 00:38:40;;;;;;;9.68;6.30;;;;;;;5.97;86.48;101853.84;5062462;28;20086;-46
2022/12/07 00:41:14;;;;;;;12.45;6.32;;;;;;;6.01;86.58;101858.38;5058753;28;20074;-46
2022/12/07 00:43:40;;;;;;;10.00;6.38;;;;;;;5.92;86.70;101853.56;5066105;28;20017;-44
2022/12/07 00:46:06;;;;;;;11.52;6.47;;;;;;;5.96;86.45;101854.66;5063380;28;20033;-49
2022/12/07 00:48:31;;;;;;;10.85;6.20;;;;;;;5.95;86.17;101853.78;5062335;28;20115;-46
2022/12/07 00:50:57;;;;;;;10.45;6.20;;;;;;;5.96;86.35;101857.22;5056291;28;20059;-49
2022/12/07 00:53:22;;;;;;;8.95;6.32;;;;;;;5.93;86.25;101855.31;5063587;28;20060;-44
2022/12/07 00:55:48;;;;;;;10.23;6.60;;;;;;;5.96;86.32;101857.22;5063729;28;20037;-46
2022/12/07 00:58:13;;;;;;;9.00;6.20;;;;;;;5.90;85.94;101860.22;5061023;28;20099;-47
2022/12/07 01:00:40;;;;;;;8.23;5.88;;;;;;;5.90;86.22;101856.00;5063058;28;20066;-46
2022/12/07 01:03:07;;;;;;;7.25;5.70;;;;;;;5.84;86.33;101845.41;5059278;28;20051;-46
2022/12/07 01:05:33;;;;;;;9.25;5.72;;;;;;;5.84;86.31;101840.28;5062531;28;21230;-47
2022/12/07 01:07:58;;;;;;;8.27;5.30;;;;;;;5.82;86.24;101841.84;5063377;28;20103;-44
2022/12/07 01:10:24;;;;;;;7.22;5.18;;;;;;;5.86;85.72;101841.25;5065305;28;20512;-46
2022/12/07 01:12:49;;;;;;;8.38;5.80;;;;;;;5.81;85.90;101841.75;5060237;28;20032;-46
2022/12/07 01:15:15;;;;;;;9.23;5.57;;;;;;;5.82;86.30;101843.53;5062372;28;20040;-46
2022/12/07 01:17:40;;;;;;;6.07;4.95;;;;;;;5.82;86.40;101841.84;5064392;28;20359;-48
2022/12/07 01:20:06;;;;;;;7.13;5.18;;;;;;;5.84;86.71;101853.06;5055322;28;20025;-44
2022/12/07 01:22:37;;;;;;;9.65;5.47;;;;;;;5.85;87.10;101854.81;5057320;28;20025;-44
2022/12/07 01:25:03;;;;;;;8.10;5.40;;;;;;;5.80;87.65;101848.53;5060696;28;20516;-46
2022/12/07 01:27:28;;;;;;;10.07;5.55;;;;;;;5.90;87.61;101858.53;5064362;28;20024;-45
2022/12/07 01:29:53;;;;;;;6.88;4.68;;;;;;;5.89;87.70;101849.13;5067527;28;20090;-47
2022/12/07 01:32:19;;;;;;;9.57;5.60;;;;;;;5.87;88.01;101850.69;5069973;28;20394;-47
2022/12/07 01:34:44;;;;;;;10.07;5.35;;;;;;;5.81;88.11;101852.84;5069722;28;20069;-47
2022/12/07 01:37:09;;;;;;;8.07;5.38;;;;;;;5.84;88.37;101844.53;5069764;28;20123;-46
2022/12/07 01:39:35;;;;;;;8.35;5.00;;;;;;;5.88;88.51;101841.34;5073087;28;20090;-47
2022/12/07 01:42:00;;;;;;;9.15;5.15;;;;;;;5.91;88.56;101851.81;5069846;28;20405;-48
2022/12/07 01:44:29;;;;;;;8.45;5.10;;;;;;;5.93;88.45;101854.44;5066862;28;20044;-46
2022/12/07 01:46:58;;;;;;;11.68;5.22;;;;;;;5.91;88.27;101849.25;5072985;28;20484;-44
2022/12/07 01:49:47;;;;;;;9.90;4.80;;;;;;;5.91;88.44;101849.25;5072503;28;20021;-47
2022/12/07 01:52:17;;;;;;;9.18;4.88;;;;;;;5.90;88.54;101847.47;5061409;28;20392;-46
2022/12/07 01:54:46;;;;;;;8.82;4.65;;;;;;;5.91;88.18;101846.69;5063408;28;20024;-47
2022/12/07 01:57:13;;;;;;;10.05;4.30;;;;;;;5.92;87.94;101843.34;5068095;28;20062;-47
2022/12/07 01:59:39;;;;;;;8.63;4.68;;;;;;;5.93;87.78;101837.47;5069708;28;20024;-45
2022/12/07 02:02:09;;;;;;;6.88;3.90;;;;;;;5.94;87.38;101839.22;5068547;28;20139;-49
2022/12/07 02:04:36;;;;;;;8.35;4.60;;;;;;;5.89;87.09;101844.03;5067774;28;20497;-46
2022/12/07 02:07:03;;;;;;;7.13;4.53;;;;;;;5.84;86.96;101844.53;5069947;28;20517;-47
2022/12/07 02:09:28;;;;;;;7.35;4.30;;;;;;;5.85;86.88;101843.72;5067865;28;20090;-46
2022/12/07 02:11:55;;;;;;;7.90;3.83;;;;;;;5.81;86.57;101844.31;5069003;28;20385;-48
2022/12/07 02:14:20;;;;;;;7.15;4.18;;;;;;;5.78;86.96;101842.47;5067019;28;20043;-45
2022/12/07 02:17:06;;;;;;;8.60;4.55;;;;;;;5.80;87.10;101843.44;5070200;28;20037;-45
2022/12/07 02:20:03;;;;;;;10.07;4.20;;;;;;;5.82;87.00;101841.84;5071786;28;20423;-46
2022/12/07 02:22:58;;;;;;;8.52;4.32;;;;;;;5.82;86.91;101833.31;5063944;28;20465;-44
2022/12/07 02:25:56;;;;;;;7.47;3.97;;;;;;;5.76;86.63;101846.56;5063264;28;20401;-47
2022/12/07 02:28:39;;;;;;;7.32;3.78;;;;;;;5.81;87.21;101846.88;5062747;28;20129;-48
2022/12/07 02:31:13;;;;;;;7.85;4.13;;;;;;;5.76;86.97;101843.13;5067480;28;20133;-44
2022/12/07 02:33:45;;;;;;;9.25;3.90;;;;;;;5.68;87.01;101840.09;5069936;28;20048;-47
2022/12/07 02:36:24;;;;;;;9.55;4.00;;;;;;;5.69;87.36;101841.88;5070740;28;20017;-47
2022/12/07 02:38:59;;;;;;;6.38;3.97;;;;;;;5.71;86.90;101840.31;5066220;28;20115;-49
2022/12/07 02:41:34;;;;;;;6.40;4.05;;;;;;;5.68;86.77;101836.69;5064919;28;20060;-45
2022/12/07 02:44:08;;;;;;;9.30;4.60;;;;;;;5.69;87.14;101834.22;5067431;28;20044;-47
2022/12/07 02:46:40;;;;;;;7.20;3.92;;;;;;;5.65;86.91;101832.28;5064870;28;20113;-47
2022/12/07 02:49:07;;;;;;;7.60;4.20;;;;;;;5.65;86.90;101824.63;5065535;28;20033;-48
2022/12/07 02:51:38;;;;;;;5.57;4.03;;;;;;;5.62;86.63;101826.97;5064000;28;20039;-46
2022/12/07 02:54:11;;;;;;;6.43;3.67;;;;;;;5.65;86.46;101833.16;5061116;28;20074;-49
2022/12/07 02:56:43;;;;;;;8.35;4.00;;;;;;;5.66;86.73;101831.47;5067312;28;20472;-48
2022/12/07 02:59:17;;;;;;;10.00;4.10;;;;;;;5.58;86.46;101837.75;5067646;28;20027;-47
2022/12/07 03:01:57;;;;;;;8.88;3.88;;;;;;;5.59;86.82;101844.66;5060874;28;20024;-46
2022/12/07 03:05:04;;;;;;;8.70;4.07;;;;;;;5.59;86.48;101835.31;5067858;28;20024;-45
2022/12/07 03:07:53;;;;;;;8.77;4.05;;;;;;;5.51;87.06;101838.16;5065244;28;20373;-45
2022/12/07 03:10:53;;;;;;;6.55;3.45;;;;;;;5.58;86.83;101838.66;5065763;28;20125;-47
2022/12/07 03:13:30;;;;;;;8.27;3.67;;;;;;;5.56;86.87;101836.78;5063293;28;20021;-45
2022/12/07 03:16:05;;;;;;;7.18;3.45;;;;;;;5.56;87.02;101841.88;5063290;28;20079;-46
2022/12/07 03:18:35;;;;;;;7.68;3.80;;;;;;;5.53;86.90;101834.06;5064888;28;20397;-46
2022/12/07 03:21:09;;;;;;;6.82;3.72;;;;;;;5.49;87.10;101834.63;5066698;28;20540;-48
2022/12/07 03:23:37;;;;;;;9.90;3.92;;;;;;;5.51;86.96;101843.25;5060649;28;20024;-47
2022/12/07 03:26:05;;;;;;;7.00;3.75;;;;;;;5.53;87.08;101846.81;5052379;28;20024;-46
2022/12/07 03:28:40;;;;;;;8.65;4.30;;;;;;;5.57;87.32;101843.66;5060646;28;20025;-47
2022/12/07 03:31:19;;;;;;;9.05;3.83;;;;;;;5.59;87.38;101839.53;5064330;28;20028;-48
2022/12/07 03:34:07;;;;;;;11.82;4.20;;;;;;;5.61;87.55;101835.41;5060616;28;20478;-46
2022/12/07 03:36:42;;;;;;;8.50;4.15;;;;;;;5.61;87.55;101830.31;5062600;28;20052;-45
2022/12/07 03:39:33;;;;;;;8.18;3.72;;;;;;;5.60;87.84;101826.00;5066381;28;20040;-48
2022/12/07 03:42:00;;;;;;;8.95;3.67;;;;;;;5.60;87.83;101823.44;5065864;28;20049;-44
2022/12/07 03:44:27;;;;;;;7.63;3.40;;;;;;;5.60;87.65;101823.44;5063845;28;20033;-45
2022/12/07 03:47:05;;;;;;;8.07;3.70;;;;;;;5.63;88.24;101811.75;5067188;28;20047;-47
2022/12/07 03:49:51;;;;;;;10.53;3.87;;;;;;;5.67;88.26;101811.94;5064402;28;20415;-47
2022/12/07 03:52:35;;;;;;;7.22;3.47;;;;;;;5.62;88.27;101824.41;5067426;28;20149;-48
2022/12/07 03:55:03;;;;;;;6.47;3.78;;;;;;;5.61;88.25;101820.09;5052533;28;20044;-45
2022/12/07 03:57:32;;;;;;;7.72;3.45;;;;;;;5.64;88.37;101815.16;5062817;28;20032;-47
2022/12/07 03:59:58;;;;;;;8.02;3.33;;;;;;;5.60;88.25;101824.31;5063696;28;20469;-49
2022/12/07 04:02:27;;;;;;;6.97;3.47;;;;;;;5.61;88.72;101825.19;5062111;28;20037;-49
2022/12/07 04:04:52;;;;;;;6.38;3.42;;;;;;;5.57;88.68;101818.13;5062608;28;20036;-49
2022/12/07 04:07:18;;;;;;;4.63;3.30;;;;;;;5.60;88.70;101819.22;5065519;28;20416;-46
2022/12/07 04:09:43;;;;;;;7.25;3.65;;;;;;;5.64;88.87;101826.28;5065430;28;20534;-47
2022/12/07 04:12:09;;;;;;;7.85;3.22;;;;;;;5.64;88.06;101825.38;5060555;28;20021;-48
2022/12/07 04:14:34;;;;;;;8.20;3.53;;;;;;;5.64;88.15;101823.75;5064691;28;20063;-49
2022/12/07 04:16:59;;;;;;;6.45;3.15;;;;;;;5.65;88.04;101827.19;5058915;28;20059;-47
2022/12/07 04:19:28;;;;;;;6.85;3.13;;;;;;;5.65;88.32;101828.06;5061922;28;20123;-46
2022/12/07 04:21:55;;;;;;;7.53;3.10;;;;;;;5.60;88.61;101829.44;5065689;28;20028;-47
2022/12/07 04:24:21;;;;;;;7.45;3.40;;;;;;;5.60;88.69;101833.66;5060397;28;20532;-47
2022/12/07 04:26:47;;;;;;;4.88;3.35;;;;;;;5.62;88.84;101832.06;5055208;28;20035;-48
2022/12/07 04:29:13;;;;;;;5.80;3.45;;;;;;;5.61;88.91;101825.19;5061372;28;20029;-45
2022/12/07 04:31:39;;;;;;;6.75;2.90;;;;;;;5.59;88.74;101816.59;5062999;28;20024;-47
2022/12/07 04:34:05;;;;;;;6.45;3.17;;;;;;;5.64;88.82;101822.81;5061513;28;20025;-46
2022/12/07 04:36:31;;;;;;;7.72;3.10;;;;;;;5.65;88.73;101817.84;5064636;28;20025;-45
2022/12/07 04:38:57;;;;;;;8.60;2.95;;;;;;;5.68;88.64;101814.59;5061492;28;20027;-48
2022/12/07 04:41:26;;;;;;;6.30;3.28;;;;;;;5.64;88.59;101815.16;5063198;28;20036;-48
2022/12/07 04:44:00;;;;;;;8.55;3.50;;;;;;;5.66;88.52;101818.72;5062529;28;20064;-47
2022/12/07 04:46:27;;;;;;;7.47;3.22;;;;;;;5.61;88.33;101809.91;5062928;28;20048;-45
2022/12/07 04:48:53;;;;;;;8.95;3.00;;;;;;;5.60;88.28;101806.47;5064015;28;20621;-48
2022/12/07 04:51:21;;;;;;;7.65;3.30;;;;;;;5.62;88.25;101817.63;5065571;28;20048;-47
2022/12/07 04:53:47;;;;;;;8.57;3.17;;;;;;;5.61;88.32;101809.91;5063417;28;20016;-48
2022/12/07 04:56:13;;;;;;;7.55;3.10;;;;;;;5.59;88.24;101814.03;5059995;28;20032;-47
2022/12/07 04:58:39;;;;;;;5.57;2.80;;;;;;;5.57;88.48;101807.94;5061817;28;20042;-46
2022/12/07 05:01:04;;;;;;;5.57;2.80;;;;;;;5.53;88.31;101803.44;5061320;28;20345;-47
2022/12/07 05:03:29;;;;;;;6.05;2.65;;;;;;;5.56;87.97;101803.63;5059583;28;20369;-45
2022/12/07 05:05:55;;;;;;;8.75;2.72;;;;;;;5.56;87.83;101803.63;5062198;28;20133;-47
2022/12/07 05:08:20;;;;;;;9.15;3.20;;;;;;;5.51;87.83;101795.66;5063943;28;20021;-47
2022/12/07 05:10:45;;;;;;;5.82;3.10;;;;;;;5.55;87.88;101801.84;5060316;28;20529;-45
2022/12/07 05:13:11;;;;;;;7.43;2.88;;;;;;;5.55;87.71;101791.66;5065238;28;20121;-47
2022/12/07 05:15:36;;;;;;;6.30;3.33;;;;;;;5.55;87.62;101794.19;5065725;28;20354;-45
2022/12/07 05:18:03;;;;;;;5.97;3.03;;;;;;;5.54;87.37;101798.44;5061639;28;20032;-46
2022/12/07 05:20:28;;;;;;;7.45;3.53;;;;;;;5.49;87.73;101802.34;5055417;28;20029;-48
2022/12/07 05:22:53;;;;;;;9.48;3.20;;;;;;;5.52;87.84;101804.19;5059198;28;20159;-49
2022/12/07 05:25:19;;;;;;;6.20;3.10;;;;;;;5.51;88.07;101807.53;5060050;28;20432;-45
2022/12/07 05:27:44;;;;;;;6.82;3.08;;;;;;;5.48;87.64;101812.47;5055197;28;20036;-47
2022/12/07 05:30:10;;;;;;;6.90;3.17;;;;;;;5.48;87.97;101812.47;5057694;28;20035;-47
2022/12/07 05:32:35;;;;;;;7.13;3.67;;;;;;;5.44;87.86;101811.38;5062965;28;20024;-46
2022/12/07 05:35:00;;;;;;;5.45;3.03;;;;;;;5.46;87.73;101811.47;5058028;28;20043;-56
2022/12/07 05:37:26;;;;;;;6.70;3.10;;;;;;;5.45;87.43;101808.03;5059175;28;20032;-49
2022/12/07 05:39:51;;;;;;;7.20;3.05;;;;;;;5.45;87.05;101810.59;5060973;28;20101;-47
2022/12/07 05:42:17;;;;;;;7.18;3.10;;;;;;;5.42;86.81;101806.97;5056058;28;20107;-47
2022/12/07 05:44:44;;;;;;;5.28;2.90;;;;;;;5.33;86.30;101799.59;5060091;28;20111;-47
2022/12/07 05:47:14;;;;;;;6.00;3.20;;;;;;;5.32;86.23;101793.63;5057911;28;20516;-47
2022/12/07 05:49:40;;;;;;;5.65;3.10;;;;;;;5.32;85.85;101800.38;5062479;28;20031;-58
2022/12/07 05:52:05;;;;;;;6.10;2.92;;;;;;;5.25;85.66;101795.69;5060215;28;20021;-48
2022/12/07 05:54:31;;;;;;;8.63;3.28;;;;;;;5.24;85.37;101794.81;5062279;28;20032;-47
2022/12/07 05:56:56;;;;;;;6.90;3.40;;;;;;;5.23;85.29;101795.59;5059916;28;20430;-47
2022/12/07 05:59:22;;;;;;;7.65;3.17;;;;;;;5.20;85.22;101792.84;5052306;28;20036;-46
2022/12/07 06:01:51;;;;;;;8.90;3.20;;;;;;;5.17;85.28;101790.09;5055950;28;20130;-45
2022/12/07 06:04:17;;;;;;;5.22;3.10;;;;;;;5.08;85.09;101784.38;5060252;28;20032;-47
2022/12/07 06:06:42;;;;;;;6.80;3.40;;;;;;;5.07;84.95;101782.63;5058685;28;20040;-47
2022/12/07 06:09:07;;;;;;;8.90;3.60;;;;;;;5.09;84.93;101788.69;5059330;28;20134;-47
2022/12/07 06:14:17;;;;;;;4.95;3.00;;;;;;;5.02;84.35;101786.53;5060868;28;20047;-47
2022/12/07 06:16:43;;;;;;;4.53;3.00;;;;;;;5.03;84.53;101793.41;5067210;28;20123;-46
2022/12/07 06:19:08;;;;;;;6.43;3.17;;;;;;;4.99;84.71;101796.56;5068192;28;20043;-46
2022/12/07 06:21:33;;;;;;;5.13;3.25;;;;;;;4.94;85.23;101795.38;5065056;28;20032;-48
2022/12/07 06:23:59;;;;;;;4.22;3.13;;;;;;;4.95;85.69;101794.59;5067052;28;20123;-45
2022/12/07 06:26:24;;;;;;;7.03;3.38;;;;;;;4.92;86.04;101796.94;5067141;28;20036;-48
2022/12/07 06:28:49;;;;;;;7.88;3.60;;;;;;;4.98;86.62;101803.31;5061854;28;20614;-46
2022/12/07 06:31:15;;;;;;;6.55;4.07;;;;;;;5.05;87.28;101796.94;5064384;28;20381;-46
2022/12/07 06:33:41;;;;;;;8.40;4.15;;;;;;;4.99;87.37;101789.78;5061479;28;20060;-44
2022/12/07 06:36:07;;;;;;;7.20;3.97;;;;;;;5.06;87.58;101797.03;5069884;28;20601;-47
2022/12/07 06:38:33;;;;;;;9.48;3.85;;;;;;;5.08;87.83;101797.13;5062979;28;20074;-47
2022/12/07 06:40:58;;;;;;;9.18;4.05;;;;;;;5.09;87.98;101801.44;5063147;28;20044;-47
2022/12/07 06:43:23;;;;;;;10.57;4.10;;;;;;;5.15;87.74;101799.28;5064950;28;20147;-46
2022/12/07 06:45:49;;;;;;;7.78;3.90;;;;;;;5.16;87.51;101796.00;5064229;28;20110;-47
2022/12/07 06:48:14;;;;;;;8.65;4.00;;;;;;;5.15;86.94;101801.84;5068025;28;20073;-48
2022/12/07 06:50:39;;;;;;;6.93;4.05;;;;;;;5.10;86.93;101800.69;5064059;28;20032;-47
2022/12/07 06:53:05;;;;;;;7.57;4.43;;;;;;;5.07;87.17;101798.81;5068019;28;20076;-47
2022/12/07 06:55:30;;;;;;;6.43;3.95;;;;;;;5.02;87.01;101796.75;5068528;28;20028;-48
2022/12/07 06:57:56;;;;;;;9.73;4.32;;;;;;;5.04;87.23;101805.41;5067699;28;20025;-44
2022/12/07 07:00:21;;;;;;;10.18;4.20;;;;;;;5.04;87.56;101807.94;5060122;28;20020;-45
2022/12/07 07:02:46;;;;;;;7.85;4.22;;;;;;;5.05;87.40;101802.94;5063517;28;20424;-47
2022/12/07 07:05:12;;;;;;;6.75;3.95;;;;;;;5.04;87.21;101796.06;5066960;28;20293;-43
2022/12/07 07:07:37;;;;;;;11.48;4.40;;;;;;;5.08;86.93;101804.78;5066081;28;20029;-50
2022/12/07 07:10:03;;;;;;;7.57;4.10;;;;;;;5.09;86.86;101804.88;5065788;28;20051;-47
2022/12/07 07:12:29;;;;;;;9.07;4.57;;;;;;;5.08;87.17;101810.75;5065559;28;20356;-47
2022/12/07 07:14:54;;;;;;;8.32;4.35;;;;;;;5.03;87.29;101811.25;5063037;28;20090;-47
2022/12/07 07:17:19;;;;;;;9.15;4.55;;;;;;;5.03;87.56;101814.66;5064103;28;20066;-46
2022/12/07 07:19:45;;;;;;;12.55;4.65;;;;;;;5.05;87.58;101814.78;5062946;28;20045;-44
2022/12/07 07:22:10;;;;;;;11.88;4.60;;;;;;;5.05;87.51;101804.59;5065731;28;20047;-46
2022/12/07 07:24:35;;;;;;;7.93;4.65;;;;;;;5.03;87.97;101808.69;5066120;28;20036;-45
2022/12/07 07:27:01;;;;;;;6.07;4.18;;;;;;;5.03;87.45;101812.13;5065838;28;20051;-47
2022/12/07 07:29:26;;;;;;;9.05;4.68;;;;;;;5.08;87.72;101804.78;5065371;28;20036;-46
2022/12/07 07:31:51;;;;;;;10.48;4.75;;;;;;;5.02;88.00;101807.81;5058983;28;20048;-46
2022/12/07 07:34:17;;;;;;;14.27;4.82;;;;;;;5.05;88.54;101815.69;5063203;28;20032;-45
2022/12/07 07:36:42;;;;;;;9.30;4.82;;;;;;;5.06;88.68;101814.00;5064297;28;20044;-49
2022/12/07 07:39:09;;;;;;;8.88;4.82;;;;;;;5.08;88.72;101810.75;5063154;28;20060;-46
2022/12/07 07:41:34;;;;;;;8.95;5.75;;;;;;;5.10;89.10;101813.44;5061710;28;20060;-47
2022/12/07 07:43:59;;;;;;;10.13;5.07;;;;;;;5.11;88.86;101810.09;5064470;28;20121;-46
2022/12/07 07:46:25;;;;;;;9.50;4.80;;;;;;;5.09;88.59;101809.09;5063722;28;20070;-48
2022/12/07 07:48:50;;;;;;;9.82;5.60;;;;;;;5.10;88.80;101810.88;5063075;28;20032;-47
2022/12/07 07:51:15;;;;;;;12.13;4.57;;;;;;;5.13;88.23;101811.06;5059577;28;20420;-46
2022/12/07 07:53:41;;;;;;;7.60;5.20;;;;;;;5.12;88.26;101811.84;5063667;28;20596;-49
2022/12/07 07:56:06;;;;;;;10.18;5.07;;;;;;;5.09;87.98;101811.66;5064598;28;20043;-48
2022/12/07 07:58:31;;;;;;;12.50;5.15;;;;;;;5.10;87.53;101816.00;5062859;28;20028;-44
2022/12/07 08:01:02;;;;;;;10.77;5.00;;;;;;;5.11;87.43;101815.19;5067657;28;20035;-46
2022/12/07 08:03:28;;;;;;;9.30;4.75;;;;;;;5.10;87.36;101818.53;5053480;28;20044;-47
2022/12/07 08:05:53;;;;;;;9.55;4.43;;;;;;;5.05;87.69;101814.78;5064544;28;20036;-46
2022/12/07 08:08:19;;;;;;;7.85;4.82;;;;;;;5.10;88.08;101821.09;5062454;28;20059;-46
2022/12/07 08:10:44;;;;;;;9.20;4.35;;;;;;;5.09;88.22;101814.19;5067394;28;20508;-47
2022/12/07 08:13:15;;;;;;;7.80;4.40;;;;;;;5.11;87.78;101810.09;5065579;28;20036;-45
2022/12/07 08:15:43;;;;;;;9.95;4.93;;;;;;;5.09;87.82;101816.75;5064984;28;20092;-53
2022/12/07 08:18:09;;;;;;;8.80;4.05;;;;;;;5.10;88.04;101821.09;5061374;28;20033;-47
2022/12/07 08:20:36;;;;;;;10.25;4.40;;;;;;;5.13;88.44;101821.28;5060896;28;20097;-48
2022/12/07 08:23:02;;;;;;;10.48;4.57;;;;;;;5.19;88.71;101830.97;5063463;28;20044;-45
2022/12/07 08:25:28;;;;;;;9.90;4.03;;;;;;;5.20;89.41;101825.09;5063360;28;20025;-47
2022/12/07 08:27:53;;;;;;;11.15;4.22;;;;;;;5.25;89.55;101821.19;5061977;28;20031;-47
2022/12/07 08:30:19;;;;;;;10.68;4.40;;;;;;;5.28;89.40;101817.19;5065170;28;20441;-46
2022/12/07 08:32:45;;;;;;;10.02;4.32;;;;;;;5.30;89.24;101833.44;5058147;28;20028;-46
2022/12/07 08:35:11;;;;;;;11.25;4.72;;;;;;;5.28;89.03;101834.16;5064188;28;20082;-46
2022/12/07 08:37:37;;;;;;;11.32;4.60;;;;;;;5.30;88.83;101830.91;5065184;28;20495;-47
2022/12/07 08:40:04;;;;;;;9.75;3.72;;;;;;;5.30;88.69;101830.03;5063297;28;20061;-48
2022/12/07 08:42:37;;;;;;;8.85;3.92;;;;;;;5.32;89.03;101834.41;5067322;28;20073;-47
2022/12/07 08:45:05;;;;;;;9.32;3.85;;;;;;;5.28;88.99;101829.94;5066970;28;20040;-51
2022/12/07 08:47:31;;;;;;;12.65;3.70;;;;;;;5.33;88.75;101833.63;5062949;28;20484;-48
2022/12/07 08:49:56;;;;;;;11.18;3.55;;;;;;;5.35;88.88;101832.09;5061874;28;20041;-48
2022/12/07 08:52:22;;;;;;;8.48;3.38;;;;;;;5.35;88.72;101832.09;5064978;28;20055;-46
2022/12/07 08:54:48;;;;;;;9.25;4.28;;;;;;;5.34;89.20;101832.88;5067407;28;20028;-49
2022/12/07 08:57:13;;;;;;;11.98;3.47;;;;;;;5.35;89.12;101826.97;5065851;28;20123;-46
2022/12/07 08:59:39;;;;;;;8.18;3.13;;;;;;;5.35;89.24;101832.09;5063805;28;20064;-47
2022/12/07 09:02:05;;;;;;;8.57;3.50;;;;;;;5.35;88.61;101821.00;5065280;28;20032;-47
2022/12/07 09:04:31;;;;;;;10.77;3.03;;;;;;;5.42;88.50;101824.81;5056784;28;20028;-46
2022/12/07 09:06:56;;;;;;;10.50;3.03;;;;;;;5.41;88.51;101820.50;5061837;28;20040;-44
2022/12/07 09:09:22;;;;;;;9.35;3.13;;;;;;;5.45;88.42;101827.56;5059003;28;20039;-46
2022/12/07 09:11:47;;;;;;;10.75;3.75;;;;;;;5.48;88.56;101823.53;5066125;28;20042;-48
2022/12/07 09:14:13;;;;;;;10.18;2.85;;;;;;;5.52;88.47;101824.59;5064509;28;20064;-44
2022/12/07 09:16:39;;;;;;;10.60;3.30;;;;;;;5.56;88.49;101824.03;5062266;28;20111;-43
2022/12/07 09:19:04;;;;;;;8.13;2.85;;;;;;;5.57;88.09;101813.91;5063142;28;20099;-46
2022/12/07 09:21:30;;;;;;;11.90;3.25;;;;;;;5.58;87.93;101827.53;5062483;28;20039;-45
2022/12/07 09:23:55;;;;;;;8.38;3.20;;;;;;;5.61;87.94;101831.19;5062863;28;20370;-46
2022/12/07 09:26:21;;;;;;;8.50;3.00;;;;;;;5.58;87.85;101831.00;5060305;28;20048;-46
2022/12/07 09:28:46;;;;;;;7.57;3.33;;;;;;;5.59;87.94;101826.78;5063565;28;20045;-47
2022/12/07 09:31:12;;;;;;;11.82;3.25;;;;;;;5.62;87.69;101832.06;5064023;28;20365;-47
2022/12/07 09:33:37;;;;;;;6.07;3.00;;;;;;;5.65;87.69;101828.06;5061335;28;20119;-47
2022/12/07 09:36:04;;;;;;;12.85;3.30;;;;;;;5.71;88.03;101830.13;5053064;28;20044;-46
2022/12/07 09:38:30;;;;;;;13.75;3.22;;;;;;;5.72;88.44;101833.53;5059126;28;20024;-45
2022/12/07 09:40:55;;;;;;;9.20;3.75;;;;;;;5.83;87.85;101832.56;5062915;28;20128;-46
2022/12/07 09:43:23;;;;;;;7.35;3.30;;;;;;;5.90;87.80;101821.94;5060547;28;20037;-47
2022/12/07 09:45:53;;;;;;;12.73;3.35;;;;;;;5.96;87.68;101827.44;5063917;28;20370;-47
2022/12/07 09:48:29;;;;;;;10.48;3.17;;;;;;;6.04;87.53;101828.78;5061238;28;20033;-48
2022/12/07 09:50:56;;;;;;;9.40;3.13;;;;;;;6.10;87.41;101829.16;5071764;28;20042;-47
2022/12/07 09:53:33;;;;;;;7.60;3.28;;;;;;;6.17;87.61;101827.88;5065053;28;20037;-48
2022/12/07 09:55:59;;;;;;;9.52;3.10;;;;;;;6.21;86.75;101824.72;5067801;28;20494;-47
2022/12/07 09:58:27;;;;;;;9.15;2.80;;;;;;;6.28;86.77;101824.31;5067763;28;20044;-48
2022/12/07 10:01:13;;;;;;;9.73;2.72;;;;;;;6.44;87.52;101815.91;5069920;28;20102;-47
2022/12/07 10:03:43;;;;;;;10.57;2.60;;;;;;;6.50;86.84;101823.06;5065332;28;20033;-47
2022/12/07 10:06:12;;;;;;;10.20;2.60;;;;;;;6.52;86.41;101824.00;5054545;28;20036;-49
2022/12/07 10:08:38;;;;;;;8.95;3.17;;;;;;;6.53;85.88;101818.09;5066918;28;20054;-47
2022/12/07 10:11:04;;;;;;;11.52;2.95;;;;;;;6.59;86.42;101810.81;5061914;28;20119;-48
2022/12/07 10:13:38;;;;;;;7.55;2.78;;;;;;;6.68;86.39;101811.38;5066245;28;20530;-46
2022/12/07 10:16:05;;;;;;;8.60;3.17;;;;;;;6.75;86.31;101815.16;5066122;28;20043;-51
2022/12/07 10:18:41;;;;;;;11.18;2.95;;;;;;;6.76;86.21;101804.13;5066887;28;20103;-49
2022/12/07 10:21:23;;;;;;;7.63;2.67;;;;;;;6.81;85.73;101797.63;5069824;28;20539;-47
2022/12/07 10:24:14;;;;;;;10.20;3.35;;;;;;;6.82;85.85;101805.38;5068002;28;20032;-48
2022/12/07 10:26:51;;;;;;;9.75;2.97;;;;;;;6.81;85.76;101803.63;5067032;28;20171;-49
2022/12/07 10:29:26;;;;;;;14.07;3.05;;;;;;;6.82;85.02;101805.38;5066927;28;20111;-47
2022/12/07 10:31:58;;;;;;;8.27;2.97;;;;;;;6.85;85.06;101802.09;5068539;28;20652;-48
2022/12/07 10:34:37;;;;;;;11.48;3.00;;;;;;;6.99;85.78;101791.88;5059292;28;20056;-57
2022/12/07 10:37:09;;;;;;;;;;;;;;;7.17;85.57;101788.63;5053455;28;20094;-46
2022/12/07 10:39:48;;;;;;;9.73;2.80;;;;;;;7.16;85.38;101786.81;5067410;28;21410;-48
2022/12/07 10:42:28;;;;;;;8.10;2.67;;;;;;;7.15;85.09;101780.84;5067834;28;20057;-47
2022/12/07 10:45:14;;;;;;;9.05;2.90;;;;;;;7.14;84.95;101775.63;5063264;28;20059;-46
2022/12/07 10:47:47;;;;;;;9.18;3.13;;;;;;;7.08;84.57;101778.72;5066115;28;20041;-47
2022/12/07 10:50:34;;;;;;;11.85;3.58;;;;;;;7.08;85.14;101781.28;5068246;28;20507;-46
2022/12/07 10:53:23;;;;;;;10.63;3.60;;;;;;;7.13;85.06;101784.09;5067748;28;20025;-47
2022/12/07 10:56:03;;;;;;;7.97;3.17;;;;;;;7.24;84.88;101780.47;5062199;28;20032;-46
2022/12/07 10:58:29;;;;;;;11.95;3.35;;;;;;;7.19;84.75;101769.09;5068386;28;20035;-52
2022/12/07 11:01:22;;;;;;;5.78;3.30;;;;;;;7.23;85.10;101779.59;5064162;28;20033;-54
2022/12/07 11:04:06;;;;;;;6.35;3.20;;;;;;;7.21;85.40;101775.19;5064012;28;21021;-47
2022/12/07 11:06:39;;;;;;;12.25;3.15;;;;;;;7.21;85.03;101770.06;5061425;28;20641;-44
2022/12/07 11:09:49;;;;;;;10.82;3.40;;;;;;;7.25;85.54;101767.78;5059862;28;20028;-48
2022/12/07 11:12:39;;;;;;;11.25;3.40;;;;;;;7.26;85.75;101754.19;5063521;28;20051;-48
2022/12/07 11:15:18;;;;;;;11.43;3.30;;;;;;;7.24;85.20;101768.56;5065188;28;20085;-44
2022/12/07 11:18:07;;;;;;;8.73;3.30;;;;;;;7.28;85.05;101756.84;5060974;28;20417;-46
2022/12/07 11:20:36;;;;;;;;;;;;;;;7.41;85.33;101758.41;5062352;28;20025;-44
2022/12/07 11:23:23;;;;;;;12.82;3.03;;;;;;;7.35;85.36;101748.72;5062904;28;19917;-44
2022/12/07 11:26:12;;;;;;;9.60;3.38;;;;;;;7.35;84.94;101745.28;5062626;28;20047;-52
2022/12/07 11:28:57;;;;;;;13.25;3.65;;;;;;;7.30;85.04;101746.69;5062888;28;20381;-46
2022/12/07 11:31:34;;;;;;;9.80;3.15;;;;;;;7.32;85.25;101737.41;5062161;28;20067;-46
2022/12/07 11:34:14;;;;;;;7.00;2.92;;;;;;;7.30;84.73;101741.56;5062642;28;20048;-49
2022/12/07 11:36:46;;;;;;;10.48;3.05;;;;;;;7.31;85.07;101736.53;5064616;28;20115;-46
2022/12/07 11:39:30;;;;;;;8.77;3.35;;;;;;;7.37;85.34;101730.88;5051284;28;20040;-45
2022/12/07 11:42:08;;;;;;;12.38;2.90;;;;;;;7.36;85.13;101726.56;5061280;28;20079;-47
2022/12/07 11:45:13;;;;;;;8.20;2.58;;;;;;;7.35;85.16;101728.25;5061712;28;20119;-47
2022/12/07 11:47:47;;;;;;;7.45;2.63;;;;;;;7.34;84.19;101720.47;5066006;28;20465;-47